sensor_id;sensor_type;location;lat;lon;timestamp;P1;durP1;ratioP1;P2;durP2;ratioP2
19617;SDS011;9956;51.006;13.670;2024-03-29T00:03:32;1.30;;;0.60;;
19617;SDS011;9956;51.006;13.670;2024-03-29T00:08:32;0.77;;;0.50;;
19617;SDS011;9956;51.006;13.670;2024-03-29T00:13:33;1.00;;;0.70;;
19617;SDS011;9956;51.006;13.670;2024-03-29T00:18:35;1.67;;;0.55;;
19617;SDS011;9956;51.006;13.670;2024-03-29T00:23:36;1.60;;;0.60;;
19617;SDS011;9956;51.006;13.670;2024-03-29T00:28:36;3.03;;;1.00;;
19617;SDS011;9956;51.006;13.670;2024-03-29T00:33:37;0.90;;;0.63;;
19617;SDS011;9956;51.006;13.670;2024-03-29T00:38:38;2.40;;;0.60;;
19617;SDS011;9956;51.006;13.670;2024-03-29T00:43:38;1.98;;;0.70;;
19617;SDS011;9956;51.006;13.670;2024-03-29T00:48:39;1.27;;;0.60;;
19617;SDS011;9956;51.006;13.670;2024-03-29T00:53:39;1.98;;;0.70;;
19617;SDS011;9956;51.006;13.670;2024-03-29T00:58:40;1.98;;;0.80;;
19617;SDS011;9956;51.006;13.670;2024-03-29T01:03:40;2.95;;;0.77;;
19617;SDS011;9956;51.006;13.670;2024-03-29T01:08:41;1.63;;;0.90;;
19617;SDS011;9956;51.006;13.670;2024-03-29T01:13:42;3.13;;;1.00;;
19617;SDS011;9956;51.006;13.670;2024-03-29T01:18:42;2.17;;;0.70;;
19617;SDS011;9956;51.006;13.670;2024-03-29T01:23:44;1.67;;;0.73;;
19617;SDS011;9956;51.006;13.670;2024-03-29T01:28:44;3.05;;;0.70;;
19617;SDS011;9956;51.006;13.670;2024-03-29T01:33:45;2.95;;;0.73;;
19617;SDS011;9956;51.006;13.670;2024-03-29T01:38:45;3.45;;;0.98;;
19617;SDS011;9956;51.006;13.670;2024-03-29T01:43:49;1.42;;;0.73;;
19617;SDS011;9956;51.006;13.670;2024-03-29T01:48:50;1.48;;;0.63;;
19617;SDS011;9956;51.006;13.670;2024-03-29T01:53:55;3.28;;;0.80;;
19617;SDS011;9956;51.006;13.670;2024-03-29T01:58:56;1.88;;;0.73;;
19617;SDS011;9956;51.006;13.670;2024-03-29T02:03:57;3.95;;;1.30;;
19617;SDS011;9956;51.006;13.670;2024-03-29T02:08:58;2.05;;;0.70;;
19617;SDS011;9956;51.006;13.670;2024-03-29T02:13:59;5.70;;;2.35;;
19617;SDS011;9956;51.006;13.670;2024-03-29T02:18:59;2.10;;;0.90;;
19617;SDS011;9956;51.006;13.670;2024-03-29T02:24:05;3.65;;;0.82;;
19617;SDS011;9956;51.006;13.670;2024-03-29T02:29:06;2.67;;;0.80;;
19617;SDS011;9956;51.006;13.670;2024-03-29T02:34:07;1.35;;;0.65;;
19617;SDS011;9956;51.006;13.670;2024-03-29T02:39:09;1.75;;;0.73;;
19617;SDS011;9956;51.006;13.670;2024-03-29T02:44:10;1.70;;;0.90;;
19617;SDS011;9956;51.006;13.670;2024-03-29T02:49:10;1.67;;;0.73;;
19617;SDS011;9956;51.006;13.670;2024-03-29T02:54:11;1.48;;;0.60;;
19617;SDS011;9956;51.006;13.670;2024-03-29T02:59:11;2.38;;;0.98;;
19617;SDS011;9956;51.006;13.670;2024-03-29T03:04:12;3.70;;;0.68;;
19617;SDS011;9956;51.006;13.670;2024-03-29T03:09:12;2.42;;;0.88;;
19617;SDS011;9956;51.006;13.670;2024-03-29T03:14:31;1.95;;;0.70;;
19617;SDS011;9956;51.006;13.670;2024-03-29T03:19:32;2.00;;;1.00;;
19617;SDS011;9956;51.006;13.670;2024-03-29T03:24:32;3.45;;;0.70;;
19617;SDS011;9956;51.006;13.670;2024-03-29T03:29:33;3.05;;;0.75;;
19617;SDS011;9956;51.006;13.670;2024-03-29T03:34:33;1.17;;;0.90;;
19617;SDS011;9956;51.006;13.670;2024-03-29T03:39:34;1.27;;;0.52;;
19617;SDS011;9956;51.006;13.670;2024-03-29T03:44:34;3.53;;;1.00;;
19617;SDS011;9956;51.006;13.670;2024-03-29T03:49:34;3.88;;;0.80;;
19617;SDS011;9956;51.006;13.670;2024-03-29T03:54:35;1.98;;;0.82;;
19617;SDS011;9956;51.006;13.670;2024-03-29T03:59:35;1.92;;;0.98;;
19617;SDS011;9956;51.006;13.670;2024-03-29T04:04:36;2.05;;;0.70;;
19617;SDS011;9956;51.006;13.670;2024-03-29T04:09:36;1.52;;;0.80;;
19617;SDS011;9956;51.006;13.670;2024-03-29T04:14:37;3.25;;;0.77;;
19617;SDS011;9956;51.006;13.670;2024-03-29T04:19:37;1.35;;;0.88;;
19617;SDS011;9956;51.006;13.670;2024-03-29T04:24:37;1.83;;;0.75;;
19617;SDS011;9956;51.006;13.670;2024-03-29T04:29:38;4.10;;;1.02;;
19617;SDS011;9956;51.006;13.670;2024-03-29T04:34:38;1.42;;;0.70;;
19617;SDS011;9956;51.006;13.670;2024-03-29T04:39:39;2.40;;;0.95;;
19617;SDS011;9956;51.006;13.670;2024-03-29T04:44:39;1.52;;;1.20;;
19617;SDS011;9956;51.006;13.670;2024-03-29T04:49:40;4.55;;;1.10;;
19617;SDS011;9956;51.006;13.670;2024-03-29T04:54:40;1.77;;;1.20;;
19617;SDS011;9956;51.006;13.670;2024-03-29T04:59:41;2.03;;;0.75;;
19617;SDS011;9956;51.006;13.670;2024-03-29T05:04:41;2.55;;;1.00;;
19617;SDS011;9956;51.006;13.670;2024-03-29T05:09:43;1.95;;;0.75;;
19617;SDS011;9956;51.006;13.670;2024-03-29T05:14:43;2.42;;;0.90;;
19617;SDS011;9956;51.006;13.670;2024-03-29T05:19:44;2.63;;;0.90;;
19617;SDS011;9956;51.006;13.670;2024-03-29T05:24:44;1.77;;;0.70;;
19617;SDS011;9956;51.006;13.670;2024-03-29T05:29:45;2.80;;;0.93;;
19617;SDS011;9956;51.006;13.670;2024-03-29T05:34:45;1.35;;;0.85;;
19617;SDS011;9956;51.006;13.670;2024-03-29T05:39:46;1.67;;;1.02;;
19617;SDS011;9956;51.006;13.670;2024-03-29T05:44:47;1.10;;;0.80;;
19617;SDS011;9956;51.006;13.670;2024-03-29T05:49:48;2.45;;;0.80;;
19617;SDS011;9956;51.006;13.670;2024-03-29T05:54:48;2.28;;;1.25;;
19617;SDS011;9956;51.006;13.670;2024-03-29T05:59:50;2.08;;;1.00;;
19617;SDS011;9956;51.006;13.670;2024-03-29T06:04:52;2.40;;;1.05;;
19617;SDS011;9956;51.006;13.670;2024-03-29T06:09:53;2.85;;;1.25;;
19617;SDS011;9956;51.006;13.670;2024-03-29T06:14:54;2.53;;;1.48;;
19617;SDS011;9956;51.006;13.670;2024-03-29T06:20:13;2.33;;;1.38;;
19617;SDS011;9956;51.006;13.670;2024-03-29T06:25:13;1.35;;;0.80;;
19617;SDS011;9956;51.006;13.670;2024-03-29T06:30:15;2.75;;;1.08;;
19617;SDS011;9956;51.006;13.670;2024-03-29T06:35:16;1.92;;;0.70;;
19617;SDS011;9956;51.006;13.670;2024-03-29T06:40:19;1.58;;;1.25;;
19617;SDS011;9956;51.006;13.670;2024-03-29T06:45:20;2.33;;;1.20;;
19617;SDS011;9956;51.006;13.670;2024-03-29T06:50:20;2.22;;;0.90;;
19617;SDS011;9956;51.006;13.670;2024-03-29T06:55:20;1.77;;;0.80;;
19617;SDS011;9956;51.006;13.670;2024-03-29T07:00:21;1.10;;;0.80;;
19617;SDS011;9956;51.006;13.670;2024-03-29T07:05:21;2.55;;;1.00;;
19617;SDS011;9956;51.006;13.670;2024-03-29T07:10:23;1.70;;;0.90;;
19617;SDS011;9956;51.006;13.670;2024-03-29T07:15:23;1.92;;;0.80;;
19617;SDS011;9956;51.006;13.670;2024-03-29T07:20:25;1.10;;;0.70;;
19617;SDS011;9956;51.006;13.670;2024-03-29T07:25:27;2.45;;;1.50;;
19617;SDS011;9956;51.006;13.670;2024-03-29T07:30:27;1.23;;;0.80;;
19617;SDS011;9956;51.006;13.670;2024-03-29T07:35:27;2.00;;;0.73;;
19617;SDS011;9956;51.006;13.670;2024-03-29T07:40:28;1.10;;;0.70;;
19617;SDS011;9956;51.006;13.670;2024-03-29T07:45:28;1.20;;;0.77;;
19617;SDS011;9956;51.006;13.670;2024-03-29T07:50:29;2.33;;;1.00;;
19617;SDS011;9956;51.006;13.670;2024-03-29T07:55:29;2.85;;;0.90;;
19617;SDS011;9956;51.006;13.670;2024-03-29T08:00:33;2.10;;;0.70;;
19617;SDS011;9956;51.006;13.670;2024-03-29T08:05:34;2.60;;;0.90;;
19617;SDS011;9956;51.006;13.670;2024-03-29T08:10:34;1.98;;;0.70;;
19617;SDS011;9956;51.006;13.670;2024-03-29T08:15:35;1.73;;;0.80;;
19617;SDS011;9956;51.006;13.670;2024-03-29T08:20:35;2.30;;;0.90;;
19617;SDS011;9956;51.006;13.670;2024-03-29T08:25:36;2.28;;;0.70;;
19617;SDS011;9956;51.006;13.670;2024-03-29T08:30:37;1.15;;;0.75;;
19617;SDS011;9956;51.006;13.670;2024-03-29T08:35:38;1.23;;;0.68;;
19617;SDS011;9956;51.006;13.670;2024-03-29T08:40:43;1.23;;;0.50;;
19617;SDS011;9956;51.006;13.670;2024-03-29T08:45:46;1.02;;;0.47;;
19617;SDS011;9956;51.006;13.670;2024-03-29T08:50:47;2.50;;;1.15;;
19617;SDS011;9956;51.006;13.670;2024-03-29T08:55:47;1.52;;;0.50;;
19617;SDS011;9956;51.006;13.670;2024-03-29T09:00:54;1.05;;;0.57;;
19617;SDS011;9956;51.006;13.670;2024-03-29T09:05:55;1.25;;;0.63;;
19617;SDS011;9956;51.006;13.670;2024-03-29T09:10:56;1.85;;;1.00;;
19617;SDS011;9956;51.006;13.670;2024-03-29T09:15:56;4.13;;;2.88;;
19617;SDS011;9956;51.006;13.670;2024-03-29T09:20:57;1.27;;;0.60;;
19617;SDS011;9956;51.006;13.670;2024-03-29T09:25:58;1.40;;;0.70;;
19617;SDS011;9956;51.006;13.670;2024-03-29T09:30:59;0.65;;;0.50;;
19617;SDS011;9956;51.006;13.670;2024-03-29T09:36:00;0.75;;;0.60;;
19617;SDS011;9956;51.006;13.670;2024-03-29T09:41:10;1.25;;;0.50;;
19617;SDS011;9956;51.006;13.670;2024-03-29T09:46:13;0.80;;;0.40;;
19617;SDS011;9956;51.006;13.670;2024-03-29T09:51:14;0.80;;;0.60;;
19617;SDS011;9956;51.006;13.670;2024-03-29T09:56:14;0.73;;;0.50;;
19617;SDS011;9956;51.006;13.670;2024-03-29T10:01:15;1.83;;;0.52;;
19617;SDS011;9956;51.006;13.670;2024-03-29T10:06:16;1.40;;;0.80;;
19617;SDS011;9956;51.006;13.670;2024-03-29T10:11:19;1.50;;;0.60;;
19617;SDS011;9956;51.006;13.670;2024-03-29T10:16:21;2.72;;;0.82;;
19617;SDS011;9956;51.006;13.670;2024-03-29T10:21:26;1.50;;;1.00;;
19617;SDS011;9956;51.006;13.670;2024-03-29T10:26:27;2.38;;;0.90;;
19617;SDS011;9956;51.006;13.670;2024-03-29T10:31:27;2.28;;;0.88;;
19617;SDS011;9956;51.006;13.670;2024-03-29T10:36:28;1.35;;;0.80;;
19617;SDS011;9956;51.006;13.670;2024-03-29T10:41:29;1.15;;;0.82;;
19617;SDS011;9956;51.006;13.670;2024-03-29T10:46:30;3.88;;;1.02;;
19617;SDS011;9956;51.006;13.670;2024-03-29T10:51:31;2.70;;;1.10;;
19617;SDS011;9956;51.006;13.670;2024-03-29T10:56:34;1.67;;;1.08;;
19617;SDS011;9956;51.006;13.670;2024-03-29T11:01:35;2.50;;;1.17;;
19617;SDS011;9956;51.006;13.670;2024-03-29T11:06:35;2.13;;;1.05;;
19617;SDS011;9956;51.006;13.670;2024-03-29T11:11:38;1.30;;;1.00;;
19617;SDS011;9956;51.006;13.670;2024-03-29T11:16:39;2.70;;;1.15;;
19617;SDS011;9956;51.006;13.670;2024-03-29T11:21:45;1.90;;;1.00;;
19617;SDS011;9956;51.006;13.670;2024-03-29T11:26:48;1.33;;;1.00;;
19617;SDS011;9956;51.006;13.670;2024-03-29T11:31:58;1.85;;;0.98;;
19617;SDS011;9956;51.006;13.670;2024-03-29T11:37:14;3.13;;;0.90;;
19617;SDS011;9956;51.006;13.670;2024-03-29T11:42:15;2.28;;;0.80;;
19617;SDS011;9956;51.006;13.670;2024-03-29T11:47:16;1.38;;;1.00;;
19617;SDS011;9956;51.006;13.670;2024-03-29T11:52:18;2.65;;;1.20;;
19617;SDS011;9956;51.006;13.670;2024-03-29T11:57:18;1.33;;;0.88;;
19617;SDS011;9956;51.006;13.670;2024-03-29T12:02:19;2.17;;;1.50;;
19617;SDS011;9956;51.006;13.670;2024-03-29T12:07:20;2.40;;;1.13;;
19617;SDS011;9956;51.006;13.670;2024-03-29T12:12:20;2.45;;;0.90;;
19617;SDS011;9956;51.006;13.670;2024-03-29T12:17:20;1.45;;;0.90;;
19617;SDS011;9956;51.006;13.670;2024-03-29T12:22:21;2.95;;;1.42;;
19617;SDS011;9956;51.006;13.670;2024-03-29T12:27:21;3.40;;;1.67;;
19617;SDS011;9956;51.006;13.670;2024-03-29T12:32:24;1.58;;;1.02;;
19617;SDS011;9956;51.006;13.670;2024-03-29T12:37:26;3.13;;;1.00;;
19617;SDS011;9956;51.006;13.670;2024-03-29T12:42:29;2.65;;;1.00;;
19617;SDS011;9956;51.006;13.670;2024-03-29T12:47:30;1.30;;;0.88;;
19617;SDS011;9956;51.006;13.670;2024-03-29T12:52:37;1.88;;;1.20;;
19617;SDS011;9956;51.006;13.670;2024-03-29T12:57:41;2.30;;;1.02;;
19617;SDS011;9956;51.006;13.670;2024-03-29T13:02:44;3.13;;;0.93;;
19617;SDS011;9956;51.006;13.670;2024-03-29T13:07:44;1.58;;;0.98;;
19617;SDS011;9956;51.006;13.670;2024-03-29T13:12:45;1.52;;;0.70;;
19617;SDS011;9956;51.006;13.670;2024-03-29T13:17:49;1.80;;;0.90;;
19617;SDS011;9956;51.006;13.670;2024-03-29T13:22:50;2.67;;;0.80;;
19617;SDS011;9956;51.006;13.670;2024-03-29T13:27:52;0.45;;;0.40;;
19617;SDS011;9956;51.006;13.670;2024-03-29T13:32:54;0.93;;;0.68;;
19617;SDS011;9956;51.006;13.670;2024-03-29T13:37:54;0.60;;;0.40;;
19617;SDS011;9956;51.006;13.670;2024-03-29T13:42:55;0.88;;;0.43;;
19617;SDS011;9956;51.006;13.670;2024-03-29T13:47:56;0.73;;;0.40;;
19617;SDS011;9956;51.006;13.670;2024-03-29T13:52:57;2.45;;;0.60;;
19617;SDS011;9956;51.006;13.670;2024-03-29T13:57:57;1.80;;;0.70;;
19617;SDS011;9956;51.006;13.670;2024-03-29T14:02:59;1.15;;;0.85;;
19617;SDS011;9956;51.006;13.670;2024-03-29T14:07:59;1.80;;;0.60;;
19617;SDS011;9956;51.006;13.670;2024-03-29T14:13:01;1.67;;;0.70;;
19617;SDS011;9956;51.006;13.670;2024-03-29T14:18:02;0.95;;;0.45;;
19617;SDS011;9956;51.006;13.670;2024-03-29T14:23:02;0.47;;;0.45;;
19617;SDS011;9956;51.006;13.670;2024-03-29T14:28:06;0.77;;;0.43;;
19617;SDS011;9956;51.006;13.670;2024-03-29T14:33:07;1.20;;;0.77;;
19617;SDS011;9956;51.006;13.670;2024-03-29T14:38:08;1.10;;;0.70;;
19617;SDS011;9956;51.006;13.670;2024-03-29T14:43:09;1.15;;;0.70;;
19617;SDS011;9956;51.006;13.670;2024-03-29T14:48:10;1.08;;;0.50;;
19617;SDS011;9956;51.006;13.670;2024-03-29T14:53:10;2.40;;;0.50;;
19617;SDS011;9956;51.006;13.670;2024-03-29T14:58:11;1.35;;;0.57;;
19617;SDS011;9956;51.006;13.670;2024-03-29T15:03:11;0.70;;;0.35;;
19617;SDS011;9956;51.006;13.670;2024-03-29T15:08:12;0.32;;;0.30;;
19617;SDS011;9956;51.006;13.670;2024-03-29T15:13:17;0.63;;;0.55;;
19617;SDS011;9956;51.006;13.670;2024-03-29T15:18:17;1.00;;;0.35;;
19617;SDS011;9956;51.006;13.670;2024-03-29T15:23:17;1.50;;;0.47;;
19617;SDS011;9956;51.006;13.670;2024-03-29T15:28:24;1.27;;;0.60;;
19617;SDS011;9956;51.006;13.670;2024-03-29T15:33:44;2.22;;;1.08;;
19617;SDS011;9956;51.006;13.670;2024-03-29T15:38:44;1.80;;;1.30;;
19617;SDS011;9956;51.006;13.670;2024-03-29T15:43:45;1.00;;;0.65;;
19617;SDS011;9956;51.006;13.670;2024-03-29T15:48:46;1.73;;;0.80;;
19617;SDS011;9956;51.006;13.670;2024-03-29T15:53:49;1.10;;;0.70;;
19617;SDS011;9956;51.006;13.670;2024-03-29T15:58:51;1.30;;;1.00;;
19617;SDS011;9956;51.006;13.670;2024-03-29T16:03:53;1.08;;;0.57;;
19617;SDS011;9956;51.006;13.670;2024-03-29T16:08:53;1.92;;;0.95;;
19617;SDS011;9956;51.006;13.670;2024-03-29T16:13:54;1.67;;;0.80;;
19617;SDS011;9956;51.006;13.670;2024-03-29T16:18:54;3.83;;;2.65;;
19617;SDS011;9956;51.006;13.670;2024-03-29T16:23:55;3.10;;;1.30;;
19617;SDS011;9956;51.006;13.670;2024-03-29T16:28:55;2.20;;;1.42;;
19617;SDS011;9956;51.006;13.670;2024-03-29T16:33:58;1.25;;;0.93;;
19617;SDS011;9956;51.006;13.670;2024-03-29T16:38:59;1.60;;;1.00;;
19617;SDS011;9956;51.006;13.670;2024-03-29T16:43:59;1.45;;;1.30;;
19617;SDS011;9956;51.006;13.670;2024-03-29T16:49:00;1.77;;;1.27;;
19617;SDS011;9956;51.006;13.670;2024-03-29T16:54:01;2.92;;;1.20;;
19617;SDS011;9956;51.006;13.670;2024-03-29T16:59:02;2.10;;;1.83;;
19617;SDS011;9956;51.006;13.670;2024-03-29T17:04:03;3.30;;;2.50;;
19617;SDS011;9956;51.006;13.670;2024-03-29T17:09:04;3.08;;;2.42;;
19617;SDS011;9956;51.006;13.670;2024-03-29T17:14:04;3.63;;;2.47;;
19617;SDS011;9956;51.006;13.670;2024-03-29T17:19:05;3.72;;;2.22;;
19617;SDS011;9956;51.006;13.670;2024-03-29T17:24:05;2.70;;;2.13;;
19617;SDS011;9956;51.006;13.670;2024-03-29T17:29:06;7.50;;;6.03;;
19617;SDS011;9956;51.006;13.670;2024-03-29T17:34:10;10.88;;;7.57;;
19617;SDS011;9956;51.006;13.670;2024-03-29T17:39:13;5.53;;;4.90;;
19617;SDS011;9956;51.006;13.670;2024-03-29T17:44:13;8.02;;;6.05;;
19617;SDS011;9956;51.006;13.670;2024-03-29T17:49:15;5.78;;;4.45;;
19617;SDS011;9956;51.006;13.670;2024-03-29T17:54:16;8.32;;;5.88;;
19617;SDS011;9956;51.006;13.670;2024-03-29T17:59:16;40.08;;;35.33;;
19617;SDS011;9956;51.006;13.670;2024-03-29T18:04:17;3.13;;;2.10;;
19617;SDS011;9956;51.006;13.670;2024-03-29T18:09:17;2.63;;;1.45;;
19617;SDS011;9956;51.006;13.670;2024-03-29T18:14:18;8.93;;;3.92;;
19617;SDS011;9956;51.006;13.670;2024-03-29T18:19:18;6.28;;;5.10;;
19617;SDS011;9956;51.006;13.670;2024-03-29T18:24:19;11.80;;;6.63;;
19617;SDS011;9956;51.006;13.670;2024-03-29T18:29:20;27.15;;;14.70;;
19617;SDS011;9956;51.006;13.670;2024-03-29T18:34:20;16.05;;;11.52;;
19617;SDS011;9956;51.006;13.670;2024-03-29T18:39:21;8.15;;;5.47;;
19617;SDS011;9956;51.006;13.670;2024-03-29T18:44:21;16.45;;;10.30;;
19617;SDS011;9956;51.006;13.670;2024-03-29T18:49:22;5.40;;;4.35;;
19617;SDS011;9956;51.006;13.670;2024-03-29T18:54:22;5.95;;;3.58;;
19617;SDS011;9956;51.006;13.670;2024-03-29T18:59:23;7.15;;;5.28;;
19617;SDS011;9956;51.006;13.670;2024-03-29T19:04:23;4.63;;;4.20;;
19617;SDS011;9956;51.006;13.670;2024-03-29T19:09:24;17.08;;;13.15;;
19617;SDS011;9956;51.006;13.670;2024-03-29T19:14:24;13.73;;;10.43;;
19617;SDS011;9956;51.006;13.670;2024-03-29T19:19:25;14.68;;;11.18;;
19617;SDS011;9956;51.006;13.670;2024-03-29T19:24:26;16.90;;;13.88;;
19617;SDS011;9956;51.006;13.670;2024-03-29T19:29:26;14.55;;;12.10;;
19617;SDS011;9956;51.006;13.670;2024-03-29T19:34:27;12.75;;;9.07;;
19617;SDS011;9956;51.006;13.670;2024-03-29T19:39:27;3.78;;;2.80;;
19617;SDS011;9956;51.006;13.670;2024-03-29T19:44:28;6.00;;;5.40;;
19617;SDS011;9956;51.006;13.670;2024-03-29T19:49:28;6.82;;;6.13;;
19617;SDS011;9956;51.006;13.670;2024-03-29T19:54:28;9.77;;;7.40;;
19617;SDS011;9956;51.006;13.670;2024-03-29T19:59:29;9.82;;;7.90;;
19617;SDS011;9956;51.006;13.670;2024-03-29T20:04:30;8.23;;;7.25;;
19617;SDS011;9956;51.006;13.670;2024-03-29T20:09:34;9.27;;;7.65;;
19617;SDS011;9956;51.006;13.670;2024-03-29T20:14:36;9.63;;;8.55;;
19617;SDS011;9956;51.006;13.670;2024-03-29T20:19:36;7.20;;;6.43;;
19617;SDS011;9956;51.006;13.670;2024-03-29T20:24:37;11.15;;;9.93;;
19617;SDS011;9956;51.006;13.670;2024-03-29T20:29:37;12.98;;;11.13;;
19617;SDS011;9956;51.006;13.670;2024-03-29T20:34:38;10.52;;;8.07;;
19617;SDS011;9956;51.006;13.670;2024-03-29T20:39:38;9.13;;;8.02;;
19617;SDS011;9956;51.006;13.670;2024-03-29T20:44:39;6.97;;;6.28;;
19617;SDS011;9956;51.006;13.670;2024-03-29T20:49:39;9.35;;;7.05;;
19617;SDS011;9956;51.006;13.670;2024-03-29T20:54:40;11.25;;;7.80;;
19617;SDS011;9956;51.006;13.670;2024-03-29T20:59:40;8.13;;;7.32;;
19617;SDS011;9956;51.006;13.670;2024-03-29T21:04:41;8.52;;;7.32;;
19617;SDS011;9956;51.006;13.670;2024-03-29T21:10:00;8.10;;;6.85;;
19617;SDS011;9956;51.006;13.670;2024-03-29T21:15:01;10.00;;;7.65;;
19617;SDS011;9956;51.006;13.670;2024-03-29T21:20:02;8.77;;;6.90;;
19617;SDS011;9956;51.006;13.670;2024-03-29T21:25:11;9.23;;;7.40;;
19617;SDS011;9956;51.006;13.670;2024-03-29T21:36:34;9.15;;;8.25;;
19617;SDS011;9956;51.006;13.670;2024-03-29T21:41:34;11.50;;;10.23;;
19617;SDS011;9956;51.006;13.670;2024-03-29T21:46:35;10.25;;;9.10;;
19617;SDS011;9956;51.006;13.670;2024-03-29T21:51:35;13.50;;;11.85;;
19617;SDS011;9956;51.006;13.670;2024-03-29T21:56:35;11.10;;;10.00;;
19617;SDS011;9956;51.006;13.670;2024-03-29T22:01:36;12.75;;;11.18;;
19617;SDS011;9956;51.006;13.670;2024-03-29T22:06:37;10.05;;;8.20;;
19617;SDS011;9956;51.006;13.670;2024-03-29T22:11:38;13.05;;;9.27;;
19617;SDS011;9956;51.006;13.670;2024-03-29T22:16:40;9.48;;;8.52;;
19617;SDS011;9956;51.006;13.670;2024-03-29T22:21:41;10.90;;;8.43;;
19617;SDS011;9956;51.006;13.670;2024-03-29T22:26:41;11.10;;;8.93;;
19617;SDS011;9956;51.006;13.670;2024-03-29T22:31:42;10.10;;;8.85;;
19617;SDS011;9956;51.006;13.670;2024-03-29T22:36:44;10.10;;;8.43;;
19617;SDS011;9956;51.006;13.670;2024-03-29T22:41:44;10.93;;;9.10;;
19617;SDS011;9956;51.006;13.670;2024-03-29T22:46:45;10.18;;;8.40;;
19617;SDS011;9956;51.006;13.670;2024-03-29T22:51:45;9.00;;;7.82;;
19617;SDS011;9956;51.006;13.670;2024-03-29T22:56:47;9.77;;;7.38;;
19617;SDS011;9956;51.006;13.670;2024-03-29T23:01:48;8.20;;;7.32;;
19617;SDS011;9956;51.006;13.670;2024-03-29T23:06:50;9.45;;;7.22;;
19617;SDS011;9956;51.006;13.670;2024-03-29T23:11:50;7.60;;;6.50;;
19617;SDS011;9956;51.006;13.670;2024-03-29T23:16:51;7.88;;;6.10;;
19617;SDS011;9956;51.006;13.670;2024-03-29T23:21:51;8.70;;;5.90;;
19617;SDS011;9956;51.006;13.670;2024-03-29T23:26:52;8.38;;;7.47;;
19617;SDS011;9956;51.006;13.670;2024-03-29T23:31:52;11.40;;;8.13;;
19617;SDS011;9956;51.006;13.670;2024-03-29T23:36:53;13.77;;;9.80;;
19617;SDS011;9956;51.006;13.670;2024-03-29T23:41:54;12.15;;;9.40;;
19617;SDS011;9956;51.006;13.670;2024-03-29T23:46:54;11.20;;;8.90;;
19617;SDS011;9956;51.006;13.670;2024-03-29T23:51:55;10.25;;;8.40;;
19617;SDS011;9956;51.006;13.670;2024-03-29T23:56:55;13.75;;;9.88;;
